sensor_id;sensor_type;location;lat;lon;timestamp;P1;durP1;ratioP1;P2;durP2;ratioP2
41057;SDS011;27499;48.884;2.258;2022-07-29T00:02:24;6.93;;;6.07;;
41057;SDS011;27499;48.884;2.258;2022-07-29T00:04:52;6.82;;;6.32;;
41057;SDS011;27499;48.884;2.258;2022-07-29T00:07:19;6.72;;;5.75;;
41057;SDS011;27499;48.884;2.258;2022-07-29T00:09:46;5.97;;;5.53;;
41057;SDS011;27499;48.884;2.258;2022-07-29T00:12:17;7.25;;;6.50;;
41057;SDS011;27499;48.884;2.258;2022-07-29T00:14:54;7.70;;;6.80;;
41057;SDS011;27499;48.884;2.258;2022-07-29T00:17:22;6.20;;;5.80;;
41057;SDS011;27499;48.884;2.258;2022-07-29T00:19:50;7.82;;;7.32;;
41057;SDS011;27499;48.884;2.258;2022-07-29T00:22:19;5.82;;;5.43;;
41057;SDS011;27499;48.884;2.258;2022-07-29T00:24:47;5.85;;;5.45;;
41057;SDS011;27499;48.884;2.258;2022-07-29T00:27:15;5.93;;;5.53;;
41057;SDS011;27499;48.884;2.258;2022-07-29T00:29:42;6.38;;;5.88;;
41057;SDS011;27499;48.884;2.258;2022-07-29T00:32:09;5.35;;;5.05;;
41057;SDS011;27499;48.884;2.258;2022-07-29T00:34:36;4.95;;;4.53;;
41057;SDS011;27499;48.884;2.258;2022-07-29T00:37:21;5.47;;;5.07;;
41057;SDS011;27499;48.884;2.258;2022-07-29T00:39:48;5.07;;;4.55;;
41057;SDS011;27499;48.884;2.258;2022-07-29T00:42:16;5.07;;;4.63;;
41057;SDS011;27499;48.884;2.258;2022-07-29T00:44:43;6.43;;;4.93;;
41057;SDS011;27499;48.884;2.258;2022-07-29T00:47:10;5.30;;;4.90;;
41057;SDS011;27499;48.884;2.258;2022-07-29T00:49:38;5.40;;;4.90;;
41057;SDS011;27499;48.884;2.258;2022-07-29T00:52:07;5.45;;;5.05;;
41057;SDS011;27499;48.884;2.258;2022-07-29T00:54:35;5.35;;;4.88;;
41057;SDS011;27499;48.884;2.258;2022-07-29T00:57:10;10.80;;;4.50;;
41057;SDS011;27499;48.884;2.258;2022-07-29T00:59:37;6.65;;;4.95;;
41057;SDS011;27499;48.884;2.258;2022-07-29T01:02:04;5.30;;;5.00;;
41057;SDS011;27499;48.884;2.258;2022-07-29T01:04:31;4.20;;;3.97;;
41057;SDS011;27499;48.884;2.258;2022-07-29T01:06:59;4.75;;;4.22;;
41057;SDS011;27499;48.884;2.258;2022-07-29T01:09:28;4.30;;;4.00;;
41057;SDS011;27499;48.884;2.258;2022-07-29T01:12:32;4.35;;;3.95;;
41057;SDS011;27499;48.884;2.258;2022-07-29T01:15:02;4.97;;;4.53;;
41057;SDS011;27499;48.884;2.258;2022-07-29T01:17:35;4.82;;;4.43;;
41057;SDS011;27499;48.884;2.258;2022-07-29T01:26:04;9.63;;;3.83;;
41057;SDS011;27499;48.884;2.258;2022-07-29T01:29:00;3.80;;;3.50;;
41057;SDS011;27499;48.884;2.258;2022-07-29T01:31:54;6.63;;;3.92;;
41057;SDS011;27499;48.884;2.258;2022-07-29T01:34:41;5.00;;;4.60;;
41057;SDS011;27499;48.884;2.258;2022-07-29T01:39:47;4.30;;;3.90;;
41057;SDS011;27499;48.884;2.258;2022-07-29T01:44:48;4.50;;;3.83;;
41057;SDS011;27499;48.884;2.258;2022-07-29T01:47:24;4.55;;;4.22;;
41057;SDS011;27499;48.884;2.258;2022-07-29T01:49:56;4.30;;;3.70;;
41057;SDS011;27499;48.884;2.258;2022-07-29T01:52:28;5.28;;;4.13;;
41057;SDS011;27499;48.884;2.258;2022-07-29T01:55:02;4.03;;;3.72;;
41057;SDS011;27499;48.884;2.258;2022-07-29T01:57:34;7.50;;;4.60;;
41057;SDS011;27499;48.884;2.258;2022-07-29T02:00:04;9.13;;;4.07;;
41057;SDS011;27499;48.884;2.258;2022-07-29T02:02:32;5.05;;;4.55;;
41057;SDS011;27499;48.884;2.258;2022-07-29T02:05:01;5.07;;;4.57;;
41057;SDS011;27499;48.884;2.258;2022-07-29T02:07:29;5.15;;;4.75;;
41057;SDS011;27499;48.884;2.258;2022-07-29T02:09:59;5.80;;;5.20;;
41057;SDS011;27499;48.884;2.258;2022-07-29T02:12:28;5.25;;;4.82;;
41057;SDS011;27499;48.884;2.258;2022-07-29T02:14:57;5.88;;;5.47;;
41057;SDS011;27499;48.884;2.258;2022-07-29T02:17:35;5.80;;;5.30;;
41057;SDS011;27499;48.884;2.258;2022-07-29T02:20:09;5.57;;;5.18;;
41057;SDS011;27499;48.884;2.258;2022-07-29T02:22:37;5.68;;;5.28;;
41057;SDS011;27499;48.884;2.258;2022-07-29T02:25:06;5.38;;;4.97;;
41057;SDS011;27499;48.884;2.258;2022-07-29T02:27:39;5.55;;;5.15;;
41057;SDS011;27499;48.884;2.258;2022-07-29T02:30:07;5.55;;;5.05;;
41057;SDS011;27499;48.884;2.258;2022-07-29T02:32:36;5.18;;;4.88;;
41057;SDS011;27499;48.884;2.258;2022-07-29T02:35:06;6.05;;;5.57;;
41057;SDS011;27499;48.884;2.258;2022-07-29T02:37:36;5.50;;;5.10;;
41057;SDS011;27499;48.884;2.258;2022-07-29T02:40:03;7.55;;;5.35;;
41057;SDS011;27499;48.884;2.258;2022-07-29T02:42:32;5.35;;;4.95;;
41057;SDS011;27499;48.884;2.258;2022-07-29T02:45:02;5.53;;;5.13;;
41057;SDS011;27499;48.884;2.258;2022-07-29T02:47:31;5.30;;;5.00;;
41057;SDS011;27499;48.884;2.258;2022-07-29T02:52:35;5.68;;;5.15;;
41057;SDS011;27499;48.884;2.258;2022-07-29T03:00:28;6.20;;;5.57;;
41057;SDS011;27499;48.884;2.258;2022-07-29T03:02:58;6.72;;;6.22;;
41057;SDS011;27499;48.884;2.258;2022-07-29T03:05:28;7.72;;;7.03;;
41057;SDS011;27499;48.884;2.258;2022-07-29T03:07:58;7.50;;;6.90;;
41057;SDS011;27499;48.884;2.258;2022-07-29T03:10:33;7.15;;;6.65;;
41057;SDS011;27499;48.884;2.258;2022-07-29T03:13:01;7.32;;;6.72;;
41057;SDS011;27499;48.884;2.258;2022-07-29T03:15:28;7.70;;;7.10;;
41057;SDS011;27499;48.884;2.258;2022-07-29T03:17:57;7.93;;;7.43;;
41057;SDS011;27499;48.884;2.258;2022-07-29T03:20:26;7.90;;;7.10;;
41057;SDS011;27499;48.884;2.258;2022-07-29T03:22:53;7.55;;;7.05;;
41057;SDS011;27499;48.884;2.258;2022-07-29T03:25:20;7.57;;;7.18;;
41057;SDS011;27499;48.884;2.258;2022-07-29T03:27:47;8.07;;;7.43;;
41057;SDS011;27499;48.884;2.258;2022-07-29T03:30:15;7.15;;;6.60;;
41057;SDS011;27499;48.884;2.258;2022-07-29T03:32:48;7.63;;;7.03;;
41057;SDS011;27499;48.884;2.258;2022-07-29T03:35:17;7.30;;;6.75;;
41057;SDS011;27499;48.884;2.258;2022-07-29T03:37:46;7.45;;;6.82;;
41057;SDS011;27499;48.884;2.258;2022-07-29T03:40:18;7.80;;;7.40;;
41057;SDS011;27499;48.884;2.258;2022-07-29T03:42:48;7.03;;;6.40;;
41057;SDS011;27499;48.884;2.258;2022-07-29T03:45:19;7.95;;;7.25;;
41057;SDS011;27499;48.884;2.258;2022-07-29T03:47:51;7.75;;;7.05;;
41057;SDS011;27499;48.884;2.258;2022-07-29T03:50:26;6.85;;;6.55;;
41057;SDS011;27499;48.884;2.258;2022-07-29T03:52:55;7.70;;;7.18;;
41057;SDS011;27499;48.884;2.258;2022-07-29T03:55:22;7.75;;;7.10;;
41057;SDS011;27499;48.884;2.258;2022-07-29T03:57:50;7.10;;;6.65;;
41057;SDS011;27499;48.884;2.258;2022-07-29T04:00:17;8.85;;;8.25;;
41057;SDS011;27499;48.884;2.258;2022-07-29T04:02:45;7.95;;;7.43;;
41057;SDS011;27499;48.884;2.258;2022-07-29T04:05:16;7.95;;;7.28;;
41057;SDS011;27499;48.884;2.258;2022-07-29T04:07:46;7.82;;;7.32;;
41057;SDS011;27499;48.884;2.258;2022-07-29T04:10:14;8.00;;;7.55;;
41057;SDS011;27499;48.884;2.258;2022-07-29T04:12:55;7.45;;;7.05;;
41057;SDS011;27499;48.884;2.258;2022-07-29T04:15:22;8.07;;;7.57;;
41057;SDS011;27499;48.884;2.258;2022-07-29T04:17:49;7.40;;;7.00;;
41057;SDS011;27499;48.884;2.258;2022-07-29T04:20:16;8.18;;;7.43;;
41057;SDS011;27499;48.884;2.258;2022-07-29T04:22:43;7.55;;;7.15;;
41057;SDS011;27499;48.884;2.258;2022-07-29T04:25:10;7.70;;;7.18;;
41057;SDS011;27499;48.884;2.258;2022-07-29T04:27:37;8.43;;;7.88;;
41057;SDS011;27499;48.884;2.258;2022-07-29T04:30:24;8.32;;;7.70;;
41057;SDS011;27499;48.884;2.258;2022-07-29T04:32:51;8.38;;;7.60;;
41057;SDS011;27499;48.884;2.258;2022-07-29T04:35:18;8.68;;;8.07;;
41057;SDS011;27499;48.884;2.258;2022-07-29T04:37:46;7.40;;;7.00;;
41057;SDS011;27499;48.884;2.258;2022-07-29T04:40:13;8.60;;;7.55;;
41057;SDS011;27499;48.884;2.258;2022-07-29T04:42:40;8.85;;;8.25;;
41057;SDS011;27499;48.884;2.258;2022-07-29T04:45:12;7.47;;;7.05;;
41057;SDS011;27499;48.884;2.258;2022-07-29T04:47:39;8.15;;;7.60;;
41057;SDS011;27499;48.884;2.258;2022-07-29T04:50:07;8.48;;;7.78;;
41057;SDS011;27499;48.884;2.258;2022-07-29T04:52:35;8.43;;;7.47;;
41057;SDS011;27499;48.884;2.258;2022-07-29T04:55:03;8.05;;;7.55;;
41057;SDS011;27499;48.884;2.258;2022-07-29T04:57:31;7.68;;;7.03;;
41057;SDS011;27499;48.884;2.258;2022-07-29T04:59:58;7.97;;;7.28;;
41057;SDS011;27499;48.884;2.258;2022-07-29T05:02:25;8.40;;;7.57;;
41057;SDS011;27499;48.884;2.258;2022-07-29T05:04:52;7.90;;;7.13;;
41057;SDS011;27499;48.884;2.258;2022-07-29T05:07:19;7.53;;;7.03;;
41057;SDS011;27499;48.884;2.258;2022-07-29T05:09:46;7.47;;;7.03;;
41057;SDS011;27499;48.884;2.258;2022-07-29T05:12:13;7.10;;;6.70;;
41057;SDS011;27499;48.884;2.258;2022-07-29T05:14:40;7.90;;;7.40;;
41057;SDS011;27499;48.884;2.258;2022-07-29T05:17:07;9.00;;;8.20;;
41057;SDS011;27499;48.884;2.258;2022-07-29T05:19:34;8.57;;;7.20;;
41057;SDS011;27499;48.884;2.258;2022-07-29T05:22:05;8.73;;;8.02;;
41057;SDS011;27499;48.884;2.258;2022-07-29T05:24:32;8.13;;;6.75;;
41057;SDS011;27499;48.884;2.258;2022-07-29T05:26:59;7.53;;;6.97;;
41057;SDS011;27499;48.884;2.258;2022-07-29T05:29:26;7.47;;;6.93;;
41057;SDS011;27499;48.884;2.258;2022-07-29T05:32:10;8.13;;;7.53;;
41057;SDS011;27499;48.884;2.258;2022-07-29T05:34:38;7.82;;;7.22;;
41057;SDS011;27499;48.884;2.258;2022-07-29T05:37:17;7.40;;;6.70;;
41057;SDS011;27499;48.884;2.258;2022-07-29T05:39:45;7.05;;;6.07;;
41057;SDS011;27499;48.884;2.258;2022-07-29T05:42:15;6.82;;;6.32;;
41057;SDS011;27499;48.884;2.258;2022-07-29T05:44:42;6.78;;;6.10;;
41057;SDS011;27499;48.884;2.258;2022-07-29T05:47:09;8.45;;;7.75;;
41057;SDS011;27499;48.884;2.258;2022-07-29T05:49:36;7.85;;;7.20;;
41057;SDS011;27499;48.884;2.258;2022-07-29T05:52:03;8.13;;;7.05;;
41057;SDS011;27499;48.884;2.258;2022-07-29T05:54:30;6.93;;;6.25;;
41057;SDS011;27499;48.884;2.258;2022-07-29T05:56:57;7.07;;;6.40;;
41057;SDS011;27499;48.884;2.258;2022-07-29T05:59:24;7.15;;;6.65;;
41057;SDS011;27499;48.884;2.258;2022-07-29T06:01:55;9.52;;;7.03;;
41057;SDS011;27499;48.884;2.258;2022-07-29T06:04:23;9.10;;;8.23;;
41057;SDS011;27499;48.884;2.258;2022-07-29T06:06:51;12.00;;;7.90;;
41057;SDS011;27499;48.884;2.258;2022-07-29T06:09:18;8.30;;;7.65;;
41057;SDS011;27499;48.884;2.258;2022-07-29T06:11:45;10.38;;;7.63;;
41057;SDS011;27499;48.884;2.258;2022-07-29T06:14:12;8.80;;;8.10;;
41057;SDS011;27499;48.884;2.258;2022-07-29T06:16:40;8.75;;;7.85;;
41057;SDS011;27499;48.884;2.258;2022-07-29T06:19:07;8.18;;;7.38;;
41057;SDS011;27499;48.884;2.258;2022-07-29T06:21:34;8.15;;;7.57;;
41057;SDS011;27499;48.884;2.258;2022-07-29T06:24:07;10.25;;;8.80;;
41057;SDS011;27499;48.884;2.258;2022-07-29T06:26:34;9.68;;;8.98;;
41057;SDS011;27499;48.884;2.258;2022-07-29T06:29:05;9.43;;;8.73;;
41057;SDS011;27499;48.884;2.258;2022-07-29T06:31:33;9.65;;;8.68;;
41057;SDS011;27499;48.884;2.258;2022-07-29T06:34:00;12.65;;;10.02;;
41057;SDS011;27499;48.884;2.258;2022-07-29T06:36:28;9.43;;;8.82;;
41057;SDS011;27499;48.884;2.258;2022-07-29T06:38:55;9.45;;;8.38;;
41057;SDS011;27499;48.884;2.258;2022-07-29T06:41:23;9.00;;;8.15;;
41057;SDS011;27499;48.884;2.258;2022-07-29T06:43:50;9.63;;;8.73;;
41057;SDS011;27499;48.884;2.258;2022-07-29T06:46:20;10.23;;;9.23;;
41057;SDS011;27499;48.884;2.258;2022-07-29T06:48:48;9.48;;;8.90;;
41057;SDS011;27499;48.884;2.258;2022-07-29T06:51:16;9.63;;;8.73;;
41057;SDS011;27499;48.884;2.258;2022-07-29T06:53:49;13.07;;;9.32;;
41057;SDS011;27499;48.884;2.258;2022-07-29T06:56:31;10.50;;;9.10;;
41057;SDS011;27499;48.884;2.258;2022-07-29T06:59:05;13.15;;;11.88;;
41057;SDS011;27499;48.884;2.258;2022-07-29T07:01:33;9.60;;;8.95;;
41057;SDS011;27499;48.884;2.258;2022-07-29T07:04:01;10.13;;;9.32;;
41057;SDS011;27499;48.884;2.258;2022-07-29T07:06:28;12.88;;;9.60;;
41057;SDS011;27499;48.884;2.258;2022-07-29T07:08:55;11.20;;;9.73;;
41057;SDS011;27499;48.884;2.258;2022-07-29T07:11:22;9.65;;;8.80;;
41057;SDS011;27499;48.884;2.258;2022-07-29T07:13:49;10.80;;;9.20;;
41057;SDS011;27499;48.884;2.258;2022-07-29T07:16:16;13.85;;;8.88;;
41057;SDS011;27499;48.884;2.258;2022-07-29T07:18:43;9.07;;;8.30;;
41057;SDS011;27499;48.884;2.258;2022-07-29T07:21:11;10.07;;;9.13;;
41057;SDS011;27499;48.884;2.258;2022-07-29T07:23:44;8.65;;;8.00;;
41057;SDS011;27499;48.884;2.258;2022-07-29T07:26:12;8.98;;;8.10;;
41057;SDS011;27499;48.884;2.258;2022-07-29T07:28:39;8.95;;;8.15;;
41057;SDS011;27499;48.884;2.258;2022-07-29T07:31:06;9.23;;;7.75;;
41057;SDS011;27499;48.884;2.258;2022-07-29T07:33:33;6.88;;;6.28;;
41057;SDS011;27499;48.884;2.258;2022-07-29T07:35:59;7.25;;;6.38;;
41057;SDS011;27499;48.884;2.258;2022-07-29T07:38:26;7.85;;;7.15;;
41057;SDS011;27499;48.884;2.258;2022-07-29T07:40:53;11.05;;;9.13;;
41057;SDS011;27499;48.884;2.258;2022-07-29T07:43:20;9.95;;;7.78;;
41057;SDS011;27499;48.884;2.258;2022-07-29T07:45:48;10.48;;;7.63;;
41057;SDS011;27499;48.884;2.258;2022-07-29T07:48:15;8.27;;;7.05;;
41057;SDS011;27499;48.884;2.258;2022-07-29T07:50:41;10.48;;;7.68;;
41057;SDS011;27499;48.884;2.258;2022-07-29T07:53:10;8.07;;;7.10;;
41057;SDS011;27499;48.884;2.258;2022-07-29T07:55:40;7.90;;;7.30;;
41057;SDS011;27499;48.884;2.258;2022-07-29T07:58:29;9.90;;;7.80;;
41057;SDS011;27499;48.884;2.258;2022-07-29T08:00:56;10.43;;;7.20;;
41057;SDS011;27499;48.884;2.258;2022-07-29T08:03:23;12.27;;;7.57;;
41057;SDS011;27499;48.884;2.258;2022-07-29T08:05:50;8.10;;;7.38;;
41057;SDS011;27499;48.884;2.258;2022-07-29T08:08:18;9.07;;;7.90;;
41057;SDS011;27499;48.884;2.258;2022-07-29T08:10:45;8.40;;;7.60;;
41057;SDS011;27499;48.884;2.258;2022-07-29T08:13:21;12.80;;;7.43;;
41057;SDS011;27499;48.884;2.258;2022-07-29T08:15:56;11.50;;;7.93;;
41057;SDS011;27499;48.884;2.258;2022-07-29T08:18:26;7.80;;;7.18;;
41057;SDS011;27499;48.884;2.258;2022-07-29T08:20:55;8.20;;;7.40;;
41057;SDS011;27499;48.884;2.258;2022-07-29T08:23:22;8.93;;;8.07;;
41057;SDS011;27499;48.884;2.258;2022-07-29T08:25:50;7.82;;;7.13;;
41057;SDS011;27499;48.884;2.258;2022-07-29T08:28:20;7.50;;;6.75;;
41057;SDS011;27499;48.884;2.258;2022-07-29T08:30:51;7.95;;;7.13;;
41057;SDS011;27499;48.884;2.258;2022-07-29T08:33:18;8.18;;;6.35;;
41057;SDS011;27499;48.884;2.258;2022-07-29T08:35:45;10.88;;;5.50;;
41057;SDS011;27499;48.884;2.258;2022-07-29T08:38:12;9.25;;;5.90;;
41057;SDS011;27499;48.884;2.258;2022-07-29T08:40:39;6.68;;;4.50;;
41057;SDS011;27499;48.884;2.258;2022-07-29T08:43:07;7.45;;;4.80;;
41057;SDS011;27499;48.884;2.258;2022-07-29T08:45:41;7.85;;;4.72;;
41057;SDS011;27499;48.884;2.258;2022-07-29T08:48:14;9.45;;;5.47;;
41057;SDS011;27499;48.884;2.258;2022-07-29T08:50:47;6.55;;;5.68;;
41057;SDS011;27499;48.884;2.258;2022-07-29T08:53:16;7.22;;;6.55;;
41057;SDS011;27499;48.884;2.258;2022-07-29T08:55:45;5.63;;;5.22;;
41057;SDS011;27499;48.884;2.258;2022-07-29T08:58:14;10.02;;;6.68;;
41057;SDS011;27499;48.884;2.258;2022-07-29T09:00:43;6.45;;;5.85;;
41057;SDS011;27499;48.884;2.258;2022-07-29T09:03:15;6.32;;;5.82;;
41057;SDS011;27499;48.884;2.258;2022-07-29T09:05:46;7.57;;;7.05;;
41057;SDS011;27499;48.884;2.258;2022-07-29T09:08:14;7.28;;;6.60;;
41057;SDS011;27499;48.884;2.258;2022-07-29T09:10:42;9.50;;;7.28;;
41057;SDS011;27499;48.884;2.258;2022-07-29T09:13:09;7.45;;;6.75;;
41057;SDS011;27499;48.884;2.258;2022-07-29T09:15:39;7.30;;;6.80;;
41057;SDS011;27499;48.884;2.258;2022-07-29T09:18:06;7.45;;;6.78;;
41057;SDS011;27499;48.884;2.258;2022-07-29T09:20:50;6.95;;;6.38;;
41057;SDS011;27499;48.884;2.258;2022-07-29T09:23:37;8.35;;;6.35;;
41057;SDS011;27499;48.884;2.258;2022-07-29T09:26:05;8.65;;;6.45;;
41057;SDS011;27499;48.884;2.258;2022-07-29T09:28:32;7.22;;;6.75;;
41057;SDS011;27499;48.884;2.258;2022-07-29T09:31:00;7.72;;;7.03;;
41057;SDS011;27499;48.884;2.258;2022-07-29T09:33:33;6.53;;;5.95;;
41057;SDS011;27499;48.884;2.258;2022-07-29T09:36:06;5.75;;;5.38;;
41057;SDS011;27499;48.884;2.258;2022-07-29T09:38:34;6.20;;;5.63;;
41057;SDS011;27499;48.884;2.258;2022-07-29T09:41:03;6.53;;;5.00;;
41057;SDS011;27499;48.884;2.258;2022-07-29T09:43:32;6.15;;;5.45;;
41057;SDS011;27499;48.884;2.258;2022-07-29T09:46:12;18.98;;;6.28;;
41057;SDS011;27499;48.884;2.258;2022-07-29T09:48:40;9.88;;;5.30;;
41057;SDS011;27499;48.884;2.258;2022-07-29T09:51:19;13.25;;;4.93;;
41057;SDS011;27499;48.884;2.258;2022-07-29T09:54:24;5.43;;;4.50;;
41057;SDS011;27499;48.884;2.258;2022-07-29T09:56:52;5.55;;;4.28;;
41057;SDS011;27499;48.884;2.258;2022-07-29T09:59:21;7.85;;;4.82;;
41057;SDS011;27499;48.884;2.258;2022-07-29T10:01:52;5.13;;;4.72;;
41057;SDS011;27499;48.884;2.258;2022-07-29T10:04:20;5.07;;;4.60;;
41057;SDS011;27499;48.884;2.258;2022-07-29T10:07:00;5.90;;;5.40;;
41057;SDS011;27499;48.884;2.258;2022-07-29T10:09:31;6.18;;;5.68;;
41057;SDS011;27499;48.884;2.258;2022-07-29T10:12:09;5.93;;;5.40;;
41057;SDS011;27499;48.884;2.258;2022-07-29T10:14:40;6.80;;;5.60;;
41057;SDS011;27499;48.884;2.258;2022-07-29T10:17:08;9.57;;;5.40;;
41057;SDS011;27499;48.884;2.258;2022-07-29T10:19:36;6.63;;;5.57;;
41057;SDS011;27499;48.884;2.258;2022-07-29T10:22:06;5.50;;;5.10;;
41057;SDS011;27499;48.884;2.258;2022-07-29T10:24:34;6.63;;;6.03;;
41057;SDS011;27499;48.884;2.258;2022-07-29T10:27:05;6.88;;;5.43;;
41057;SDS011;27499;48.884;2.258;2022-07-29T10:29:33;5.78;;;5.38;;
41057;SDS011;27499;48.884;2.258;2022-07-29T10:34:57;4.05;;;3.85;;
41057;SDS011;27499;48.884;2.258;2022-07-29T10:38:02;7.40;;;4.50;;
41057;SDS011;27499;48.884;2.258;2022-07-29T10:44:02;7.25;;;4.45;;
41057;SDS011;27499;48.884;2.258;2022-07-29T10:46:35;5.53;;;5.05;;
41057;SDS011;27499;48.884;2.258;2022-07-29T10:54:44;5.55;;;5.00;;
41057;SDS011;27499;48.884;2.258;2022-07-29T10:57:23;5.15;;;4.50;;
41057;SDS011;27499;48.884;2.258;2022-07-29T11:02:42;4.93;;;4.63;;
41057;SDS011;27499;48.884;2.258;2022-07-29T11:05:12;11.25;;;5.95;;
41057;SDS011;27499;48.884;2.258;2022-07-29T11:10:46;4.35;;;4.05;;
41057;SDS011;27499;48.884;2.258;2022-07-29T11:16:09;4.63;;;4.18;;
41057;SDS011;27499;48.884;2.258;2022-07-29T11:18:36;3.58;;;3.30;;
41057;SDS011;27499;48.884;2.258;2022-07-29T11:21:42;4.75;;;4.13;;
41057;SDS011;27499;48.884;2.258;2022-07-29T11:24:28;3.83;;;3.55;;
41057;SDS011;27499;48.884;2.258;2022-07-29T11:27:10;5.32;;;3.45;;
41057;SDS011;27499;48.884;2.258;2022-07-29T11:32:41;5.70;;;5.30;;
41057;SDS011;27499;48.884;2.258;2022-07-29T11:43:50;4.57;;;4.28;;
41057;SDS011;27499;48.884;2.258;2022-07-29T11:49:22;4.90;;;4.60;;
41057;SDS011;27499;48.884;2.258;2022-07-29T11:51:58;5.70;;;5.25;;
41057;SDS011;27499;48.884;2.258;2022-07-29T11:54:47;5.72;;;5.25;;
41057;SDS011;27499;48.884;2.258;2022-07-29T11:57:23;5.63;;;5.30;;
41057;SDS011;27499;48.884;2.258;2022-07-29T12:00:04;4.25;;;3.85;;
41057;SDS011;27499;48.884;2.258;2022-07-29T12:02:40;3.70;;;3.40;;
41057;SDS011;27499;48.884;2.258;2022-07-29T12:05:14;3.53;;;3.23;;
41057;SDS011;27499;48.884;2.258;2022-07-29T12:08:07;4.00;;;3.70;;
41057;SDS011;27499;48.884;2.258;2022-07-29T12:10:40;3.78;;;3.47;;
41057;SDS011;27499;48.884;2.258;2022-07-29T12:13:09;4.95;;;3.95;;
41057;SDS011;27499;48.884;2.258;2022-07-29T12:15:37;5.32;;;4.15;;
41057;SDS011;27499;48.884;2.258;2022-07-29T12:18:16;3.83;;;3.13;;
41057;SDS011;27499;48.884;2.258;2022-07-29T12:20:49;4.78;;;3.15;;
41057;SDS011;27499;48.884;2.258;2022-07-29T12:23:29;7.05;;;3.50;;
41057;SDS011;27499;48.884;2.258;2022-07-29T12:26:03;4.50;;;2.97;;
41057;SDS011;27499;48.884;2.258;2022-07-29T12:28:38;5.35;;;2.80;;
41057;SDS011;27499;48.884;2.258;2022-07-29T12:31:05;3.03;;;2.72;;
41057;SDS011;27499;48.884;2.258;2022-07-29T12:33:39;4.65;;;4.25;;
41057;SDS011;27499;48.884;2.258;2022-07-29T12:36:06;2.97;;;2.78;;
41057;SDS011;27499;48.884;2.258;2022-07-29T12:38:42;3.33;;;3.03;;
41057;SDS011;27499;48.884;2.258;2022-07-29T12:41:10;3.70;;;3.40;;
41057;SDS011;27499;48.884;2.258;2022-07-29T12:43:47;6.95;;;3.25;;
41057;SDS011;27499;48.884;2.258;2022-07-29T12:46:19;4.40;;;3.20;;
41057;SDS011;27499;48.884;2.258;2022-07-29T12:48:49;5.72;;;3.90;;
41057;SDS011;27499;48.884;2.258;2022-07-29T12:51:34;4.03;;;2.95;;
41057;SDS011;27499;48.884;2.258;2022-07-29T12:54:09;2.85;;;2.60;;
41057;SDS011;27499;48.884;2.258;2022-07-29T12:56:37;3.00;;;2.80;;
41057;SDS011;27499;48.884;2.258;2022-07-29T12:59:19;5.35;;;2.72;;
41057;SDS011;27499;48.884;2.258;2022-07-29T13:01:49;7.72;;;4.70;;
41057;SDS011;27499;48.884;2.258;2022-07-29T13:04:27;4.80;;;4.40;;
41057;SDS011;27499;48.884;2.258;2022-07-29T13:06:59;6.75;;;6.32;;
41057;SDS011;27499;48.884;2.258;2022-07-29T13:09:47;4.47;;;4.18;;
41057;SDS011;27499;48.884;2.258;2022-07-29T13:12:14;5.65;;;5.20;;
41057;SDS011;27499;48.884;2.258;2022-07-29T13:14:42;5.05;;;3.85;;
41057;SDS011;27499;48.884;2.258;2022-07-29T13:17:12;5.35;;;3.25;;
41057;SDS011;27499;48.884;2.258;2022-07-29T13:19:42;4.57;;;3.30;;
41057;SDS011;27499;48.884;2.258;2022-07-29T13:22:11;4.57;;;3.85;;
41057;SDS011;27499;48.884;2.258;2022-07-29T13:24:49;4.78;;;4.03;;
41057;SDS011;27499;48.884;2.258;2022-07-29T13:27:24;3.70;;;2.80;;
41057;SDS011;27499;48.884;2.258;2022-07-29T13:29:53;2.65;;;2.55;;
41057;SDS011;27499;48.884;2.258;2022-07-29T13:32:23;4.55;;;3.03;;
41057;SDS011;27499;48.884;2.258;2022-07-29T13:34:57;4.70;;;3.10;;
41057;SDS011;27499;48.884;2.258;2022-07-29T13:37:30;5.68;;;2.90;;
41057;SDS011;27499;48.884;2.258;2022-07-29T13:40:00;5.40;;;2.92;;
41057;SDS011;27499;48.884;2.258;2022-07-29T13:42:29;2.75;;;2.55;;
41057;SDS011;27499;48.884;2.258;2022-07-29T13:44:58;4.82;;;3.17;;
41057;SDS011;27499;48.884;2.258;2022-07-29T13:47:25;2.75;;;2.55;;
41057;SDS011;27499;48.884;2.258;2022-07-29T13:49:58;4.38;;;3.97;;
41057;SDS011;27499;48.884;2.258;2022-07-29T13:52:31;7.65;;;5.55;;
41057;SDS011;27499;48.884;2.258;2022-07-29T13:54:58;5.03;;;4.68;;
41057;SDS011;27499;48.884;2.258;2022-07-29T13:57:25;3.42;;;3.20;;
41057;SDS011;27499;48.884;2.258;2022-07-29T13:59:52;4.13;;;2.70;;
41057;SDS011;27499;48.884;2.258;2022-07-29T14:02:19;2.95;;;2.75;;
41057;SDS011;27499;48.884;2.258;2022-07-29T14:04:51;3.70;;;3.00;;
41057;SDS011;27499;48.884;2.258;2022-07-29T14:07:19;3.03;;;2.72;;
41057;SDS011;27499;48.884;2.258;2022-07-29T14:09:46;4.95;;;3.67;;
41057;SDS011;27499;48.884;2.258;2022-07-29T14:12:13;3.45;;;3.25;;
41057;SDS011;27499;48.884;2.258;2022-07-29T14:14:40;4.32;;;4.00;;
41057;SDS011;27499;48.884;2.258;2022-07-29T14:17:08;7.90;;;7.45;;
41057;SDS011;27499;48.884;2.258;2022-07-29T14:19:35;9.10;;;8.43;;
41057;SDS011;27499;48.884;2.258;2022-07-29T14:22:04;8.82;;;8.05;;
41057;SDS011;27499;48.884;2.258;2022-07-29T14:24:34;7.47;;;6.97;;
41057;SDS011;27499;48.884;2.258;2022-07-29T14:27:02;8.15;;;7.60;;
41057;SDS011;27499;48.884;2.258;2022-07-29T14:29:33;6.40;;;6.00;;
41057;SDS011;27499;48.884;2.258;2022-07-29T14:32:06;5.18;;;4.85;;
41057;SDS011;27499;48.884;2.258;2022-07-29T14:34:36;4.00;;;3.47;;
41057;SDS011;27499;48.884;2.258;2022-07-29T14:37:03;3.28;;;3.03;;
41057;SDS011;27499;48.884;2.258;2022-07-29T14:39:41;3.35;;;3.05;;
41057;SDS011;27499;48.884;2.258;2022-07-29T14:42:09;4.30;;;3.50;;
41057;SDS011;27499;48.884;2.258;2022-07-29T14:44:38;3.15;;;2.85;;
41057;SDS011;27499;48.884;2.258;2022-07-29T14:47:06;3.28;;;2.97;;
41057;SDS011;27499;48.884;2.258;2022-07-29T14:49:34;3.58;;;3.28;;
41057;SDS011;27499;48.884;2.258;2022-07-29T14:52:01;4.18;;;2.97;;
41057;SDS011;27499;48.884;2.258;2022-07-29T14:54:28;4.97;;;4.13;;
41057;SDS011;27499;48.884;2.258;2022-07-29T14:56:55;4.90;;;4.60;;
41057;SDS011;27499;48.884;2.258;2022-07-29T14:59:24;3.30;;;3.08;;
41057;SDS011;27499;48.884;2.258;2022-07-29T15:01:51;3.90;;;3.60;;
41057;SDS011;27499;48.884;2.258;2022-07-29T15:04:18;3.85;;;3.30;;
41057;SDS011;27499;48.884;2.258;2022-07-29T15:06:45;3.70;;;3.40;;
41057;SDS011;27499;48.884;2.258;2022-07-29T15:09:12;3.35;;;2.75;;
41057;SDS011;27499;48.884;2.258;2022-07-29T15:11:39;3.13;;;2.72;;
41057;SDS011;27499;48.884;2.258;2022-07-29T15:14:06;5.60;;;2.70;;
41057;SDS011;27499;48.884;2.258;2022-07-29T15:16:37;2.50;;;2.30;;
41057;SDS011;27499;48.884;2.258;2022-07-29T15:21:36;7.65;;;2.15;;
41057;SDS011;27499;48.884;2.258;2022-07-29T15:24:14;3.80;;;2.72;;
41057;SDS011;27499;48.884;2.258;2022-07-29T15:26:44;4.13;;;2.75;;
41057;SDS011;27499;48.884;2.258;2022-07-29T15:29:12;2.92;;;2.72;;
41057;SDS011;27499;48.884;2.258;2022-07-29T15:31:40;5.63;;;3.05;;
41057;SDS011;27499;48.884;2.258;2022-07-29T15:34:07;3.13;;;2.83;;
41057;SDS011;27499;48.884;2.258;2022-07-29T15:36:34;3.10;;;2.90;;
41057;SDS011;27499;48.884;2.258;2022-07-29T15:39:19;4.05;;;2.65;;
41057;SDS011;27499;48.884;2.258;2022-07-29T15:41:47;3.03;;;2.83;;
41057;SDS011;27499;48.884;2.258;2022-07-29T15:44:15;3.40;;;3.10;;
41057;SDS011;27499;48.884;2.258;2022-07-29T15:46:42;3.67;;;3.38;;
41057;SDS011;27499;48.884;2.258;2022-07-29T15:49:28;3.40;;;3.20;;
41057;SDS011;27499;48.884;2.258;2022-07-29T15:52:15;5.40;;;5.00;;
41057;SDS011;27499;48.884;2.258;2022-07-29T15:54:44;4.95;;;4.53;;
41057;SDS011;27499;48.884;2.258;2022-07-29T15:57:11;3.38;;;3.17;;
41057;SDS011;27499;48.884;2.258;2022-07-29T15:59:38;4.47;;;3.25;;
41057;SDS011;27499;48.884;2.258;2022-07-29T16:02:05;4.90;;;4.47;;
41057;SDS011;27499;48.884;2.258;2022-07-29T16:04:32;4.38;;;4.07;;